createdAt,value
2017-09-11T00:01:12.259Z,79.80
2017-09-11T00:06:15.457Z,80.70
2017-09-11T00:11:18.685Z,81.60
2017-09-11T00:16:21.897Z,82.00
2017-09-11T00:21:25.108Z,83.30
2017-09-11T00:26:28.301Z,83.50
2017-09-11T00:31:31.561Z,83.40
2017-09-11T00:36:34.801Z,83.70
2017-09-11T00:41:37.989Z,84.10
2017-09-11T00:46:41.210Z,83.90
2017-09-11T00:51:44.401Z,83.30
2017-09-11T00:56:47.581Z,84.10
2017-09-11T01:01:51.045Z,83.60
2017-09-11T01:06:54.269Z,83.20
2017-09-11T01:11:57.492Z,83.10
2017-09-11T01:17:00.700Z,83.10
2017-09-11T01:22:03.891Z,82.80
2017-09-11T01:27:07.065Z,83.00
2017-09-11T01:32:10.255Z,82.30
2017-09-11T01:37:13.456Z,81.90
2017-09-11T01:42:16.700Z,81.90
2017-09-11T01:47:19.929Z,82.00
2017-09-11T01:52:23.133Z,81.80
2017-09-11T01:57:26.323Z,81.00
2017-09-11T02:02:29.525Z,80.70
2017-09-11T02:07:32.799Z,81.20
2017-09-11T02:12:36.024Z,80.90
2017-09-11T02:17:39.243Z,80.80
2017-09-11T02:22:42.544Z,81.20
2017-09-11T02:27:45.720Z,81.10
2017-09-11T02:32:48.927Z,81.50
2017-09-11T02:37:52.157Z,80.80
2017-09-11T02:42:55.370Z,80.60
2017-09-11T02:47:58.571Z,80.10
2017-09-11T02:53:01.803Z,80.30
2017-09-11T02:58:05.002Z,79.80
2017-09-11T03:03:08.226Z,79.80
2017-09-11T03:08:11.436Z,81.20
2017-09-11T03:13:14.638Z,80.30
2017-09-11T03:18:17.830Z,80.40
2017-09-11T03:23:21.051Z,80.10
2017-09-11T03:28:24.245Z,80.10
2017-09-11T03:33:27.461Z,79.80
2017-09-11T03:38:30.721Z,80.10
2017-09-11T03:43:33.927Z,79.90
2017-09-11T03:48:37.132Z,79.80
2017-09-11T03:53:40.319Z,79.70
2017-09-11T03:58:43.595Z,79.20
2017-09-11T04:03:46.827Z,79.60
2017-09-11T04:08:50.023Z,79.10
2017-09-11T04:13:53.226Z,78.20
2017-09-11T04:18:56.422Z,78.60
2017-09-11T04:23:59.639Z,78.80
2017-09-11T04:29:02.843Z,79.30
2017-09-11T04:34:06.052Z,79.30
2017-09-11T04:39:09.268Z,79.10
2017-09-11T04:44:12.450Z,79.10
2017-09-11T04:49:15.682Z,79.10
2017-09-11T04:54:18.893Z,78.80
2017-09-11T04:59:22.091Z,78.60
2017-09-11T05:04:25.281Z,79.20
2017-09-11T05:09:28.497Z,82.70
2017-09-11T05:14:31.723Z,84.50
2017-09-11T05:19:34.923Z,85.70
2017-09-11T05:24:38.110Z,88.00
2017-09-11T05:29:41.329Z,87.00
2017-09-11T05:34:44.552Z,88.10
2017-09-11T05:39:47.736Z,90.20
2017-09-11T05:44:50.942Z,92.20
2017-09-11T05:49:54.149Z,94.10
2017-09-11T05:54:57.348Z,94.90
2017-09-11T06:00:00.588Z,97.10
2017-09-11T06:05:03.865Z,98.00
2017-09-11T06:10:07.091Z,99.10
2017-09-11T06:15:10.279Z,99.80
2017-09-11T06:20:13.603Z,99.80
2017-09-11T06:25:16.803Z,99.50
2017-09-11T06:30:20.015Z,97.90
2017-09-11T06:35:23.295Z,97.40
2017-09-11T06:40:27.261Z,95.10
2017-09-11T06:45:30.457Z,95.10
2017-09-11T06:50:33.675Z,94.40
2017-09-11T06:55:37.038Z,93.60
2017-09-11T07:00:40.233Z,92.40
2017-09-11T07:05:43.440Z,92.80
2017-09-11T07:10:46.638Z,93.20
2017-09-11T07:15:49.844Z,91.00
2017-09-11T07:20:53.072Z,90.70
2017-09-11T07:25:56.273Z,89.20
2017-09-11T07:30:59.495Z,89.80
2017-09-11T07:36:02.717Z,88.70
2017-09-11T07:41:05.917Z,88.60
2017-09-11T07:46:09.149Z,89.50
2017-09-11T07:51:12.395Z,89.20
2017-09-11T07:56:15.702Z,89.30
2017-09-11T08:01:19.030Z,89.50
2017-09-11T08:06:22.235Z,88.70
2017-09-11T08:11:25.431Z,89.00
2017-09-11T08:16:29.414Z,86.50
2017-09-11T08:21:32.623Z,86.50
2017-09-11T08:26:35.840Z,85.10
2017-09-11T08:31:39.047Z,84.80
2017-09-11T08:36:42.250Z,84.80
2017-09-11T08:41:45.510Z,84.20
2017-09-11T08:46:48.718Z,86.00
2017-09-11T08:51:51.924Z,86.00
2017-09-11T08:56:55.141Z,85.50
2017-09-11T09:01:58.389Z,86.30
2017-09-11T09:07:01.569Z,86.30
2017-09-11T09:12:04.752Z,85.30
2017-09-11T09:17:07.964Z,85.60
2017-09-11T09:22:11.217Z,84.80
2017-09-11T09:27:14.427Z,84.90
2017-09-11T09:32:17.666Z,84.20
2017-09-11T09:37:20.875Z,84.80
2017-09-11T09:42:24.125Z,84.90
2017-09-11T09:47:27.349Z,82.70
2017-09-11T09:52:30.560Z,79.30
2017-09-11T09:57:33.789Z,77.40
2017-09-11T10:02:37.093Z,75.90
2017-09-11T10:07:40.287Z,75.60
2017-09-11T10:12:43.474Z,75.30
2017-09-11T10:17:46.684Z,76.30
2017-09-11T10:22:49.893Z,77.70
2017-09-11T10:27:53.141Z,79.80
2017-09-11T10:32:56.377Z,79.30
2017-09-11T10:37:59.569Z,74.60
2017-09-11T10:43:02.785Z,72.50
2017-09-11T10:48:06.348Z,69.70
2017-09-11T10:53:09.540Z,68.40
2017-09-11T10:58:12.756Z,64.50
2017-09-11T11:03:15.973Z,64.40
2017-09-11T11:08:19.169Z,64.40
2017-09-11T11:13:22.382Z,60.50
2017-09-11T11:18:25.566Z,59.70
2017-09-11T11:23:28.769Z,59.70
2017-09-11T11:28:32.029Z,56.10
2017-09-11T11:33:35.234Z,54.70
2017-09-11T11:38:38.441Z,53.20
2017-09-11T11:43:41.663Z,53.00
2017-09-11T11:48:44.868Z,52.00
2017-09-11T11:53:48.086Z,51.00
2017-09-11T11:58:51.286Z,50.20
2017-09-11T12:03:54.504Z,50.20
2017-09-11T12:08:57.699Z,50.80
2017-09-11T12:14:00.919Z,51.20
2017-09-11T12:19:04.124Z,53.30
2017-09-11T12:24:07.636Z,54.70
2017-09-11T12:29:10.836Z,54.20
2017-09-11T12:34:14.126Z,53.90
2017-09-11T12:39:17.335Z,53.30
2017-09-11T12:44:20.549Z,53.80
2017-09-11T12:49:23.793Z,52.10
2017-09-11T12:54:26.980Z,52.20
2017-09-11T12:59:30.236Z,51.50
2017-09-11T13:04:33.464Z,51.40
2017-09-11T13:09:36.650Z,55.20
2017-09-11T13:14:39.857Z,61.70
2017-09-11T13:19:43.058Z,60.30
2017-09-11T13:24:46.292Z,50.70
2017-09-11T13:29:50.271Z,46.50
2017-09-11T13:34:53.520Z,46.40
2017-09-11T13:39:57.518Z,44.50
2017-09-11T13:45:00.747Z,44.30
2017-09-11T13:50:03.986Z,45.60
2017-09-11T13:55:07.180Z,46.00
2017-09-11T14:00:10.389Z,46.10
2017-09-11T14:05:13.599Z,45.30
2017-09-11T14:10:16.799Z,44.30
2017-09-11T14:15:20.022Z,44.90
2017-09-11T14:20:23.233Z,44.60
2017-09-11T14:25:26.444Z,44.10
2017-09-11T14:30:29.661Z,43.30
2017-09-11T14:35:32.880Z,42.10
2017-09-11T14:40:36.526Z,41.70
2017-09-11T14:45:39.726Z,43.40
2017-09-11T14:50:43.753Z,42.10
2017-09-11T14:55:46.979Z,42.40
2017-09-11T15:00:50.198Z,42.30
2017-09-11T15:05:53.422Z,43.50
2017-09-11T15:10:56.620Z,44.60
2017-09-11T15:15:59.973Z,46.10
2017-09-11T15:21:03.966Z,45.20
2017-09-11T15:26:07.205Z,46.10
2017-09-11T15:31:10.427Z,48.20
2017-09-11T15:36:13.665Z,46.00
2017-09-11T15:41:16.872Z,48.30
2017-09-11T15:46:20.353Z,48.50
2017-09-11T15:51:23.592Z,49.70
2017-09-11T15:56:26.820Z,49.30
2017-09-11T16:01:30.021Z,51.50
2017-09-11T16:06:33.241Z,53.30
2017-09-11T16:11:36.451Z,55.00
2017-09-11T16:16:39.696Z,57.80
2017-09-11T16:21:42.938Z,59.90
2017-09-11T16:26:46.138Z,62.30
2017-09-11T16:31:49.366Z,62.80
2017-09-11T16:36:52.577Z,64.70
2017-09-11T16:41:55.940Z,68.80
2017-09-11T16:46:59.166Z,68.00
2017-09-11T16:52:02.448Z,65.00
2017-09-11T16:57:05.686Z,63.10
2017-09-11T17:02:08.920Z,63.60
2017-09-11T17:07:40.575Z,63.70
2017-09-11T17:12:43.754Z,63.70
2017-09-11T17:17:46.977Z,63.90
2017-09-11T17:22:50.956Z,66.20
2017-09-11T17:27:54.172Z,66.20
2017-09-11T17:32:57.393Z,66.80
2017-09-11T17:38:00.622Z,67.10
2017-09-11T17:43:04.667Z,67.60
2017-09-11T17:48:07.876Z,67.60
2017-09-11T17:53:11.087Z,68.30
2017-09-11T17:58:14.326Z,68.50
2017-09-11T18:03:17.514Z,69.40
2017-09-11T18:08:20.744Z,70.10
2017-09-11T18:13:23.937Z,71.30
2017-09-11T18:18:27.159Z,70.60
2017-09-11T18:23:30.515Z,69.70
2017-09-11T18:28:34.493Z,69.40
2017-09-11T18:33:37.750Z,69.40
2017-09-11T18:38:41.721Z,64.90
2017-09-11T18:43:44.943Z,64.90
2017-09-11T18:48:48.185Z,65.20
2017-09-11T18:53:52.191Z,65.80
2017-09-11T18:58:55.405Z,65.80
2017-09-11T19:03:59.388Z,66.50
2017-09-11T19:09:02.591Z,66.60
2017-09-11T19:14:05.798Z,67.40
2017-09-11T19:19:09.013Z,68.00
2017-09-11T19:24:12.261Z,68.80
2017-09-11T19:29:16.245Z,69.20
2017-09-11T19:34:19.465Z,69.20
2017-09-11T19:39:22.681Z,69.30
2017-09-11T19:44:25.911Z,69.10
2017-09-11T19:49:29.891Z,69.10
2017-09-11T19:54:33.110Z,69.00
2017-09-11T19:59:36.332Z,69.50
2017-09-11T20:04:39.561Z,70.00
2017-09-11T20:09:43.516Z,70.30
2017-09-11T20:14:46.743Z,70.30
2017-09-11T20:19:49.956Z,70.30
2017-09-11T20:24:53.168Z,70.30
2017-09-11T20:29:56.391Z,70.40
2017-09-11T20:34:59.614Z,70.90
2017-09-11T20:40:03.057Z,69.90
2017-09-11T20:45:06.282Z,70.00
2017-09-11T20:50:09.494Z,70.00
2017-09-11T20:55:12.696Z,70.10
2017-09-11T21:00:15.945Z,70.10
2017-09-11T21:05:19.908Z,70.50
2017-09-11T21:10:23.158Z,70.40
2017-09-11T21:15:26.335Z,70.50
2017-09-11T21:20:29.646Z,70.30
2017-09-11T21:25:32.916Z,71.50
2017-09-11T21:30:37.025Z,72.40
2017-09-11T21:35:41.029Z,73.30
2017-09-11T21:40:44.232Z,73.40
2017-09-11T21:45:47.467Z,73.00
2017-09-11T21:50:51.434Z,74.20
2017-09-11T21:55:54.644Z,73.30
2017-09-11T22:00:57.843Z,73.40
2017-09-11T22:06:01.054Z,73.30
2017-09-11T22:11:04.279Z,72.70
2017-09-11T22:16:07.536Z,72.70
2017-09-11T22:21:11.566Z,72.80
2017-09-11T22:26:15.547Z,73.20
2017-09-11T22:31:18.853Z,73.20
2017-09-11T22:36:22.072Z,73.30
2017-09-11T22:41:25.277Z,73.20
2017-09-11T22:46:28.495Z,73.00
2017-09-11T22:51:31.692Z,72.50
2017-09-11T22:56:34.905Z,72.60
2017-09-11T23:01:38.117Z,72.20
2017-09-11T23:06:42.102Z,73.70
2017-09-11T23:11:45.305Z,73.70
2017-09-11T23:16:48.514Z,73.80
2017-09-11T23:21:51.713Z,73.30
2017-09-11T23:26:54.927Z,73.60
2017-09-11T23:31:58.146Z,73.80
2017-09-11T23:37:01.377Z,73.70
2017-09-11T23:42:05.461Z,74.60
2017-09-11T23:47:08.679Z,73.80
2017-09-11T23:52:11.888Z,73.70
2017-09-11T23:57:15.106Z,74.20
